createdAt,value
2019-03-28T00:00:51.833Z,95908.14
2019-03-28T00:03:23.469Z,95906.03
2019-03-28T00:05:54.822Z,95907.31
2019-03-28T00:50:13.033Z,95910.80
2019-03-28T00:52:43.317Z,95914.04
2019-03-28T00:55:13.821Z,95904.75
2019-03-28T00:57:45.580Z,95912.88
2019-03-28T01:00:17.577Z,95906.75
2019-03-28T01:02:50.799Z,95906.96
2019-03-28T01:05:21.007Z,95909.39
2019-03-28T01:07:51.796Z,95909.39
2019-03-28T01:10:23.780Z,95894.88
2019-03-28T01:12:54.193Z,95904.58
2019-03-28T01:15:24.404Z,95907.14
2019-03-28T01:17:55.136Z,95908.08
2019-03-28T01:20:26.228Z,95905.06
2019-03-28T01:22:56.775Z,95902.88
2019-03-28T01:25:27.538Z,95902.88
2019-03-28T01:27:57.951Z,95910.92
2019-03-28T01:30:31.605Z,95910.92
2019-03-28T01:33:02.107Z,95903.07
2019-03-28T01:35:33.218Z,95905.73
2019-03-28T01:38:08.914Z,95906.27
2019-03-28T01:40:39.376Z,95916.55
2019-03-28T01:43:09.984Z,95916.55
2019-03-28T01:45:40.201Z,95909.55
2019-03-28T01:48:10.506Z,95909.55
2019-03-28T01:50:43.991Z,95921.53
2019-03-28T01:53:14.216Z,95921.53
2019-03-28T01:55:46.547Z,95920.42
2019-03-28T01:58:16.785Z,95920.42
2019-03-28T02:00:47.071Z,95909.99
2019-03-28T02:03:17.290Z,95923.69
2019-03-28T02:05:47.539Z,95929.88
2019-03-28T02:08:17.695Z,95921.11
2019-03-28T02:10:47.833Z,95931.16
2019-03-28T02:13:18.030Z,95929.59
2019-03-28T02:15:49.350Z,95924.50
2019-03-28T02:18:19.515Z,95927.79
2019-03-28T02:20:49.695Z,95927.79
2019-03-28T02:23:19.837Z,95926.17
2019-03-28T02:25:50.939Z,95926.17
2019-03-28T02:28:21.225Z,95924.55
2019-03-28T02:30:51.318Z,95923.83
2019-03-28T02:33:21.500Z,95926.73
2019-03-28T02:35:51.963Z,95926.73
2019-03-28T02:38:22.360Z,95922.02
2019-03-28T02:40:52.754Z,95922.02
2019-03-28T02:43:23.050Z,95921.44
2019-03-28T02:45:54.158Z,95921.44
2019-03-28T02:48:24.509Z,95916.31
2019-03-28T02:50:54.613Z,95926.16
2019-03-28T02:53:24.697Z,95935.47
2019-03-28T02:55:57.694Z,95934.20
2019-03-28T02:58:27.936Z,95931.92
2019-03-28T03:00:58.342Z,95931.92
2019-03-28T03:03:28.480Z,95931.64
2019-03-28T03:05:58.546Z,95937.39
2019-03-28T03:08:28.789Z,95935.97
2019-03-28T03:10:58.974Z,95935.97
2019-03-28T03:13:29.110Z,95930.02
2019-03-28T03:15:59.775Z,95937.33
2019-03-28T03:18:30.229Z,95939.26
2019-03-28T03:21:00.708Z,95943.98
2019-03-28T03:23:33.907Z,95944.45
2019-03-28T03:26:04.726Z,95952.15
2019-03-28T03:28:35.109Z,95952.15
2019-03-28T03:31:12.360Z,95954.92
2019-03-28T03:33:46.362Z,95958.25
2019-03-28T03:36:16.996Z,95958.25
2019-03-28T03:38:47.806Z,95963.98
2019-03-28T03:41:18.172Z,95966.55
2019-03-28T03:43:51.253Z,95969.06
2019-03-28T03:46:24.248Z,95975.53
2019-03-28T03:48:54.728Z,95979.97
2019-03-28T03:51:25.786Z,95973.23
2019-03-28T03:54:01.210Z,95976.80
2019-03-28T03:56:31.875Z,95976.80
2019-03-28T03:59:02.615Z,95987.42
2019-03-28T04:01:34.162Z,95987.42
2019-03-28T04:04:06.069Z,95996.59
2019-03-28T04:06:36.776Z,95987.34
2019-03-28T04:09:11.595Z,95987.54
2019-03-28T04:11:41.957Z,95987.54
2019-03-28T04:14:12.313Z,95994.28
2019-03-28T04:16:43.194Z,95999.51
2019-03-28T04:19:13.947Z,96002.30
2019-03-28T04:21:45.524Z,96002.30
2019-03-28T04:24:16.544Z,96006.98
2019-03-28T04:26:46.916Z,96000.95
2019-03-28T04:29:19.289Z,95998.33
2019-03-28T04:31:49.851Z,95999.78
2019-03-28T04:34:20.332Z,96003.41
2019-03-28T04:36:53.364Z,96003.41
2019-03-28T04:39:24.719Z,96001.98
2019-03-28T04:41:55.207Z,96014.14
2019-03-28T04:44:26.982Z,96014.14
2019-03-28T04:46:59.754Z,96023.06
2019-03-28T04:49:32.308Z,96024.77
2019-03-28T04:52:02.604Z,96019.69
2019-03-28T04:54:32.986Z,96041.58
2019-03-28T04:57:05.105Z,96041.58
2019-03-28T04:59:35.830Z,96034.30
2019-03-28T05:02:07.569Z,96033.53
2019-03-28T05:04:38.138Z,96040.72
2019-03-28T05:07:10.189Z,96040.72
2019-03-28T05:09:42.692Z,96040.08
2019-03-28T05:12:13.014Z,96026.94
2019-03-28T05:14:44.830Z,96033.66
2019-03-28T05:17:15.327Z,96035.97
2019-03-28T05:19:48.751Z,96035.97
2019-03-28T05:22:19.385Z,96040.78
2019-03-28T05:24:49.708Z,96026.45
2019-03-28T05:27:20.566Z,96021.71
2019-03-28T05:29:52.398Z,96026.75
2019-03-28T05:32:22.772Z,96026.75
2019-03-28T05:34:53.109Z,96029.71
2019-03-28T05:37:23.328Z,96032.13
2019-03-28T05:39:54.736Z,96030.28
2019-03-28T05:42:25.178Z,96030.58
2019-03-28T05:44:57.684Z,96030.58
2019-03-28T05:47:28.225Z,96025.30
2019-03-28T05:49:59.221Z,96022.83
2019-03-28T05:52:33.596Z,96035.77
2019-03-28T05:55:05.461Z,96029.07
2019-03-28T05:57:37.851Z,96033.41
2019-03-28T06:00:08.865Z,96037.56
2019-03-28T06:02:40.475Z,96032.91
2019-03-28T06:05:11.038Z,96035.50
2019-03-28T06:07:41.328Z,96039.46
2019-03-28T06:10:12.596Z,96038.73
2019-03-28T06:12:44.345Z,96037.80
2019-03-28T06:15:17.113Z,96039.13
2019-03-28T06:17:47.567Z,96034.80
2019-03-28T06:20:18.453Z,96029.91
2019-03-28T06:22:48.866Z,96030.80
2019-03-28T06:25:23.288Z,96034.26
2019-03-28T06:27:53.828Z,96035.38
2019-03-28T06:30:27.239Z,96047.56
2019-03-28T06:32:59.665Z,96047.56
2019-03-28T06:35:30.034Z,96052.69
2019-03-28T06:38:00.595Z,96054.17
2019-03-28T06:40:31.447Z,96047.80
2019-03-28T06:43:04.009Z,96056.33
2019-03-28T06:45:34.409Z,96056.19
2019-03-28T06:48:06.506Z,96056.02
2019-03-28T06:50:36.845Z,96058.03
2019-03-28T06:53:07.630Z,96057.74
2019-03-28T06:55:39.618Z,96061.59
2019-03-28T06:58:11.730Z,96063.04
2019-03-28T07:00:43.583Z,96063.02
2019-03-28T07:03:16.679Z,96065.79
2019-03-28T07:06:04.871Z,96053.91
2019-03-28T07:08:35.414Z,96065.52
2019-03-28T07:11:10.573Z,96049.31
2019-03-28T07:13:42.397Z,96061.84
2019-03-28T07:16:13.665Z,96067.89
2019-03-28T07:18:47.080Z,96066.25
2019-03-28T07:21:18.581Z,96063.48
2019-03-28T07:23:51.384Z,96074.66
2019-03-28T07:26:23.284Z,96066.27
2019-03-28T07:28:54.475Z,96080.54
2019-03-28T07:31:29.077Z,96069.59
2019-03-28T07:33:59.444Z,96076.37
2019-03-28T07:36:32.930Z,96076.57
2019-03-28T07:39:03.768Z,96072.77
2019-03-28T07:41:34.044Z,96077.27
2019-03-28T07:44:05.753Z,96081.65
2019-03-28T07:46:38.469Z,96074.75
2019-03-28T07:49:10.815Z,96067.15
2019-03-28T07:51:45.274Z,96070.55
2019-03-28T07:54:16.098Z,96071.68
2019-03-28T07:56:49.490Z,96068.11
2019-03-28T07:59:20.263Z,96071.83
2019-03-28T08:01:51.772Z,96076.37
2019-03-28T08:04:22.246Z,96080.66
2019-03-28T08:06:54.786Z,96071.92
2019-03-28T08:09:36.405Z,96075.77
2019-03-28T08:12:01.324Z,96083.16
2019-03-28T08:14:32.075Z,96080.33
2019-03-28T08:17:02.594Z,96077.05
2019-03-28T08:19:33.173Z,96073.80
2019-03-28T08:22:03.759Z,96091.31
2019-03-28T08:24:36.699Z,96094.19
2019-03-28T08:27:08.722Z,96089.88
2019-03-28T08:29:39.037Z,96085.41
2019-03-28T08:32:13.759Z,96080.40
2019-03-28T08:34:45.743Z,96072.72
2019-03-28T08:37:24.308Z,96085.68
2019-03-28T08:39:56.168Z,96082.55
2019-03-28T08:42:29.466Z,96084.42
2019-03-28T08:45:01.227Z,96085.67
2019-03-28T08:47:31.469Z,96084.44
2019-03-28T08:50:03.173Z,96072.81
2019-03-28T08:52:33.460Z,96076.98
2019-03-28T08:55:09.955Z,96076.05
2019-03-28T08:57:40.351Z,96084.81
2019-03-28T09:00:16.354Z,96080.95
2019-03-28T09:02:46.641Z,96075.87
2019-03-28T09:05:17.018Z,96069.53
2019-03-28T09:07:47.753Z,96068.61
2019-03-28T09:10:18.665Z,96069.95
2019-03-28T09:12:50.420Z,96070.25
2019-03-28T09:15:20.783Z,96067.37
2019-03-28T09:17:53.312Z,96068.63
2019-03-28T09:20:25.878Z,96065.05
2019-03-28T09:22:57.205Z,96071.27
2019-03-28T09:25:28.325Z,96064.66
2019-03-28T09:28:00.986Z,96061.06
2019-03-28T09:30:47.518Z,96064.48
2019-03-28T09:33:10.182Z,96070.27
2019-03-28T09:35:48.270Z,96063.41
2019-03-28T09:38:20.563Z,96064.55
2019-03-28T09:40:54.082Z,96056.09
2019-03-28T09:43:26.848Z,96046.30
2019-03-28T09:46:00.260Z,96042.47
2019-03-28T09:48:29.322Z,96045.87
2019-03-28T09:51:01.259Z,96051.13
2019-03-28T09:53:33.531Z,96046.91
2019-03-28T09:56:08.476Z,96048.01
2019-03-28T09:58:40.401Z,96044.63
2019-03-28T10:01:11.045Z,96046.28
2019-03-28T10:03:42.735Z,96049.44
2019-03-28T10:06:12.912Z,96056.11
2019-03-28T10:08:43.663Z,96043.05
2019-03-28T10:11:13.928Z,96057.83
2019-03-28T10:13:44.157Z,96048.52
2019-03-28T10:16:15.937Z,96044.22
2019-03-28T10:18:46.826Z,96041.05
2019-03-28T10:21:18.427Z,96038.09
2019-03-28T10:23:50.980Z,96040.13
2019-03-28T10:26:22.394Z,96034.62
2019-03-28T10:28:52.593Z,96029.13
2019-03-28T10:31:22.975Z,96027.63
2019-03-28T10:33:54.387Z,96020.20
2019-03-28T10:36:27.685Z,96013.56
2019-03-28T10:39:00.201Z,96014.27
2019-03-28T10:41:34.760Z,96004.08
2019-03-28T10:44:05.018Z,96000.51
2019-03-28T10:46:35.375Z,96006.27
2019-03-28T10:49:05.770Z,96004.48
2019-03-28T10:51:37.261Z,95997.22
2019-03-28T10:54:19.471Z,95990.97
2019-03-28T10:56:51.712Z,95996.09
2019-03-28T10:59:23.517Z,95994.80
2019-03-28T11:01:51.313Z,95987.61
2019-03-28T11:04:23.121Z,95982.30
2019-03-28T11:06:53.607Z,95986.52
2019-03-28T11:09:28.760Z,95977.27
2019-03-28T11:11:59.066Z,95979.01
2019-03-28T11:14:31.132Z,95974.98
2019-03-28T11:17:08.565Z,95973.77
2019-03-28T11:19:39.255Z,95971.11
2019-03-28T11:22:12.069Z,95973.44
2019-03-28T11:24:46.539Z,95968.11
2019-03-28T11:27:17.164Z,95962.19
2019-03-28T11:29:47.395Z,95956.33
2019-03-28T11:32:20.906Z,95954.88
2019-03-28T11:34:51.448Z,95957.64
2019-03-28T11:37:26.346Z,95952.84
2019-03-28T11:39:53.694Z,95948.21
2019-03-28T11:42:24.190Z,95944.32
2019-03-28T11:44:57.118Z,95942.03
2019-03-28T11:47:28.796Z,95937.20
2019-03-28T11:50:00.409Z,95936.30
2019-03-28T11:52:33.233Z,95929.91
2019-03-28T11:55:05.934Z,95923.55
2019-03-28T11:57:36.552Z,95927.87
2019-03-28T12:00:08.529Z,95922.77
2019-03-28T12:02:39.045Z,95921.95
2019-03-28T12:05:14.086Z,95923.68
2019-03-28T12:07:44.750Z,95916.98
2019-03-28T12:10:16.981Z,95919.86
2019-03-28T12:12:51.991Z,95925.16
2019-03-28T12:15:24.204Z,95928.38
2019-03-28T12:17:57.384Z,95920.87
2019-03-28T12:20:27.776Z,95912.92
2019-03-28T12:22:59.492Z,95917.51
2019-03-28T12:25:29.975Z,95914.92
2019-03-28T12:28:00.631Z,95914.42
2019-03-28T12:30:30.978Z,95912.09
2019-03-28T12:33:04.279Z,95910.89
2019-03-28T12:35:38.268Z,95900.28
2019-03-28T12:38:08.550Z,95902.21
2019-03-28T12:40:41.936Z,95890.89
2019-03-28T12:43:17.776Z,95888.30
2019-03-28T12:45:50.515Z,95879.41
2019-03-28T12:48:23.073Z,95885.49
2019-03-28T12:50:59.104Z,95882.28
2019-03-28T12:53:27.522Z,95877.25
2019-03-28T12:56:00.186Z,95878.58
2019-03-28T12:58:31.547Z,95875.41
2019-03-28T13:01:02.127Z,95860.29
2019-03-28T13:03:44.848Z,95864.93
2019-03-28T13:06:06.230Z,95868.03
2019-03-28T13:08:36.695Z,95860.22
2019-03-28T13:11:09.265Z,95862.99
2019-03-28T13:13:39.538Z,95854.41
2019-03-28T13:16:09.884Z,95857.86
2019-03-28T13:18:41.292Z,95855.13
2019-03-28T13:21:14.537Z,95854.83
2019-03-28T13:23:45.157Z,95852.89
2019-03-28T13:26:17.461Z,95849.57
2019-03-28T13:28:49.109Z,95848.11
2019-03-28T13:31:19.718Z,95845.88
2019-03-28T13:33:51.998Z,95840.56
2019-03-28T13:36:23.417Z,95844.95
2019-03-28T13:38:55.423Z,95844.27
2019-03-28T13:41:27.302Z,95843.07
2019-03-28T13:44:00.305Z,95837.24
2019-03-28T13:46:32.639Z,95832.50
2019-03-28T13:49:03.241Z,95830.07
2019-03-28T13:51:33.914Z,95830.27
2019-03-28T13:54:05.840Z,95836.12
2019-03-28T13:56:38.384Z,95836.91
2019-03-28T13:59:09.131Z,95848.55
2019-03-28T14:01:40.909Z,95834.49
2019-03-28T14:04:11.389Z,95832.80
2019-03-28T14:06:42.365Z,95831.91
2019-03-28T14:09:14.732Z,95839.81
2019-03-28T14:11:46.752Z,95831.21
2019-03-28T14:14:18.720Z,95830.27
2019-03-28T14:16:53.153Z,95826.23
2019-03-28T14:19:23.216Z,95830.43
2019-03-28T14:21:53.526Z,95828.54
2019-03-28T14:24:24.059Z,95829.01
2019-03-28T14:26:55.497Z,95828.07
2019-03-28T14:29:29.977Z,95832.67
2019-03-28T14:32:02.139Z,95824.93
2019-03-28T14:34:32.630Z,95828.46
2019-03-28T14:37:05.549Z,95831.30
2019-03-28T14:39:37.651Z,95826.00
2019-03-28T14:42:08.024Z,95824.70
2019-03-28T14:44:38.969Z,95818.89
2019-03-28T14:47:09.574Z,95819.80
2019-03-28T14:49:41.747Z,95821.78
2019-03-28T14:52:12.765Z,95814.99
2019-03-28T14:54:43.563Z,95818.58
2019-03-28T14:57:18.999Z,95813.69
2019-03-28T14:59:50.411Z,95815.50
2019-03-28T15:02:20.790Z,95806.70
2019-03-28T15:04:54.368Z,95809.13
2019-03-28T15:07:25.563Z,95811.72
2019-03-28T15:09:56.633Z,95811.72
2019-03-28T15:12:31.033Z,95814.52
2019-03-28T15:15:05.926Z,95824.01
2019-03-28T15:17:41.396Z,95817.70
2019-03-28T15:20:14.428Z,95820.01
2019-03-28T15:22:45.448Z,95817.12
2019-03-28T15:25:18.697Z,95820.59
2019-03-28T15:27:50.497Z,95823.41
2019-03-28T15:30:20.910Z,95822.28
2019-03-28T15:32:51.166Z,95816.89
2019-03-28T15:35:21.803Z,95820.39
2019-03-28T15:37:53.368Z,95819.49
2019-03-28T15:40:26.968Z,95819.70
2019-03-28T15:42:57.287Z,95822.50
2019-03-28T15:45:27.553Z,95830.61
2019-03-28T15:47:58.694Z,95833.52
2019-03-28T15:50:29.318Z,95829.09
2019-03-28T15:53:00.994Z,95836.27
2019-03-28T15:55:41.611Z,95829.58
2019-03-28T15:58:22.983Z,95838.18
2019-03-28T16:00:48.841Z,95839.48
2019-03-28T16:03:21.061Z,95845.86
2019-03-28T16:05:58.167Z,95840.05
2019-03-28T16:08:24.096Z,95848.14
2019-03-28T16:10:54.777Z,95842.37
2019-03-28T16:13:26.920Z,95844.74
2019-03-28T16:15:57.565Z,95845.23
2019-03-28T16:18:28.062Z,95846.95
2019-03-28T16:20:58.641Z,95852.63
2019-03-28T16:23:29.591Z,95845.33
2019-03-28T16:26:03.385Z,95848.61
2019-03-28T16:28:33.721Z,95855.63
2019-03-28T16:31:04.391Z,95846.52
2019-03-28T16:33:34.447Z,95852.05
2019-03-28T16:36:04.780Z,95849.30
2019-03-28T16:38:38.089Z,95855.45
2019-03-28T16:41:08.430Z,95850.36
2019-03-28T16:43:38.936Z,95853.77
2019-03-28T16:46:11.772Z,95853.17
2019-03-28T16:48:42.460Z,95857.52
2019-03-28T16:51:17.368Z,95856.51
2019-03-28T16:53:46.295Z,95857.14
2019-03-28T16:56:18.063Z,95861.06
2019-03-28T16:58:49.868Z,95863.97
2019-03-28T17:01:21.771Z,95863.48
2019-03-28T17:03:52.566Z,95866.06
2019-03-28T17:06:26.212Z,95865.75
2019-03-28T17:08:58.869Z,95870.07
2019-03-28T17:11:29.232Z,95868.20
2019-03-28T17:14:03.055Z,95865.99
2019-03-28T17:16:34.797Z,95874.36
2019-03-28T17:19:05.125Z,95878.94
2019-03-28T17:21:39.750Z,95886.02
2019-03-28T17:24:11.993Z,95886.44
2019-03-28T17:26:42.547Z,95883.53
2019-03-28T17:29:14.403Z,95887.80
2019-03-28T17:31:45.043Z,95897.88
2019-03-28T17:34:15.361Z,95899.81
2019-03-28T17:36:45.952Z,95909.45
2019-03-28T17:39:17.162Z,95895.84
2019-03-28T17:41:47.748Z,95909.06
2019-03-28T17:44:18.220Z,95909.06
2019-03-28T17:46:50.196Z,95915.52
2019-03-28T17:49:21.038Z,95915.52
2019-03-28T17:51:53.409Z,95912.30
2019-03-28T17:54:25.439Z,95914.11
2019-03-28T17:56:55.812Z,95914.31
2019-03-28T17:59:28.579Z,95920.86
2019-03-28T18:01:59.287Z,95915.40
2019-03-28T18:04:29.826Z,95924.59
2019-03-28T18:07:02.487Z,95924.59
2019-03-28T18:09:33.578Z,95925.23
2019-03-28T18:12:03.842Z,95924.54
2019-03-28T18:14:33.904Z,95928.56
2019-03-28T18:17:04.082Z,95929.85
2019-03-28T18:19:34.207Z,95939.36
2019-03-28T18:22:04.361Z,95939.36
2019-03-28T18:24:35.609Z,95937.92
2019-03-28T18:27:05.840Z,95941.48
2019-03-28T18:29:36.146Z,95941.58
2019-03-28T18:32:06.484Z,95945.14
2019-03-28T18:34:36.664Z,95939.45
2019-03-28T18:37:06.821Z,95943.65
2019-03-28T18:39:36.942Z,95941.09
2019-03-28T18:42:07.282Z,95941.09
2019-03-28T18:44:37.486Z,95944.80
2019-03-28T18:47:07.665Z,95943.09
2019-03-28T18:49:37.903Z,95943.09
2019-03-28T18:52:08.193Z,95942.14
2019-03-28T18:54:38.267Z,95943.83
2019-03-28T18:57:08.413Z,95951.91
2019-03-28T18:59:38.711Z,95958.91
2019-03-28T19:02:10.179Z,95952.44
2019-03-28T19:04:40.419Z,95961.16
2019-03-28T19:07:12.015Z,95956.92
2019-03-28T19:09:43.494Z,95968.81
2019-03-28T19:12:13.615Z,95966.40
2019-03-28T19:14:46.164Z,95964.85
2019-03-28T19:17:15.791Z,95975.32
2019-03-28T19:19:46.056Z,95975.48
2019-03-28T19:22:16.331Z,95967.48
2019-03-28T19:24:46.661Z,95967.48
2019-03-28T19:27:16.931Z,95972.81
2019-03-28T19:29:47.104Z,95969.42
2019-03-28T19:32:17.265Z,95973.47
2019-03-28T19:34:47.452Z,95978.19
2019-03-28T19:37:18.606Z,95979.81
2019-03-28T19:39:48.802Z,95982.12
2019-03-28T19:42:22.561Z,95976.97
2019-03-28T19:44:51.572Z,95971.19
2019-03-28T19:47:21.835Z,95975.40
2019-03-28T19:49:52.332Z,95984.44
2019-03-28T19:52:22.626Z,95983.66
2019-03-28T19:54:52.807Z,95988.42
2019-03-28T19:57:23.178Z,95984.30
2019-03-28T19:59:58.518Z,95990.27
2019-03-28T20:02:29.301Z,95981.27
2019-03-28T20:04:59.426Z,95990.14
2019-03-28T20:07:29.584Z,95993.88
2019-03-28T20:10:00.973Z,95993.27
2019-03-28T20:12:31.775Z,95988.62
2019-03-28T20:15:03.422Z,95983.33
2019-03-28T20:17:33.702Z,95990.90
2019-03-28T20:20:06.307Z,95993.02
2019-03-28T20:22:36.545Z,95991.27
2019-03-28T20:25:07.389Z,95981.59
2019-03-28T20:27:37.475Z,95976.92
2019-03-28T20:30:08.338Z,95985.00
2019-03-28T20:32:38.460Z,95984.18
2019-03-28T20:35:11.366Z,95984.82
2019-03-28T20:37:41.588Z,95980.95
2019-03-28T20:40:15.031Z,95982.56
2019-03-28T20:42:47.735Z,95984.19
2019-03-28T20:45:19.713Z,95994.71
2019-03-28T20:47:50.879Z,95988.60
2019-03-28T20:50:21.452Z,95983.60
2019-03-28T20:52:53.400Z,95985.22
2019-03-28T20:55:23.500Z,95983.60
2019-03-28T20:57:53.693Z,95978.28
2019-03-28T21:00:43.483Z,95987.48
2019-03-28T21:03:15.151Z,95992.96
2019-03-28T21:05:47.509Z,95992.45
2019-03-28T21:08:19.979Z,96000.02
2019-03-28T21:10:50.299Z,96001.49
2019-03-28T21:13:20.597Z,95999.70
2019-03-28T21:15:50.787Z,95998.09
2019-03-28T21:18:23.473Z,96006.78
2019-03-28T21:20:53.689Z,96008.84
2019-03-28T21:23:29.253Z,96007.69
2019-03-28T21:26:00.632Z,96007.50
2019-03-28T21:28:30.878Z,96006.41
2019-03-28T21:31:01.170Z,96012.58
2019-03-28T21:33:31.336Z,96014.24
2019-03-28T21:36:01.465Z,96014.24
2019-03-28T21:38:31.634Z,96011.30
2019-03-28T21:41:03.769Z,96018.41
2019-03-28T21:43:33.903Z,96009.31
2019-03-28T21:46:06.213Z,96009.31
2019-03-28T21:48:36.934Z,96010.41
2019-03-28T21:51:07.115Z,96014.33
2019-03-28T21:53:37.308Z,96006.50
2019-03-28T21:56:08.732Z,96010.73
2019-03-28T21:58:38.975Z,96010.73
2019-03-28T22:01:09.374Z,96012.93
2019-03-28T22:03:40.060Z,96013.97
2019-03-28T22:06:10.180Z,96014.55
2019-03-28T22:08:40.287Z,96010.34
2019-03-28T22:11:11.685Z,96016.84
2019-03-28T22:13:43.083Z,96016.84
2019-03-28T22:16:13.248Z,96010.91
2019-03-28T22:18:43.448Z,96010.91
2019-03-28T22:21:13.523Z,96023.09
2019-03-28T22:23:43.721Z,96024.77
2019-03-28T22:26:14.002Z,96024.77
2019-03-28T22:28:44.231Z,96034.83
2019-03-28T22:31:14.387Z,96037.66
2019-03-28T22:33:44.448Z,96034.61
2019-03-28T22:36:15.991Z,96040.77
2019-03-28T22:38:47.116Z,96036.77
2019-03-28T22:41:18.525Z,96032.97
2019-03-28T22:43:50.774Z,96032.97
2019-03-28T22:46:20.864Z,96040.97
2019-03-28T22:48:51.065Z,96046.10
2019-03-28T22:51:21.299Z,96046.10
2019-03-28T22:53:51.621Z,96042.77
2019-03-28T22:56:23.627Z,96044.02
2019-03-28T22:58:55.203Z,96044.02
2019-03-28T23:01:26.758Z,96043.54
2019-03-28T23:03:57.012Z,96043.54
2019-03-28T23:06:27.212Z,96044.26
2019-03-28T23:08:57.376Z,96049.22
2019-03-28T23:11:27.411Z,96049.22
2019-03-28T23:13:59.857Z,96046.59
2019-03-28T23:16:32.745Z,96046.59
2019-03-28T23:19:03.085Z,96055.06
2019-03-28T23:21:33.286Z,96055.06
2019-03-28T23:24:04.410Z,96049.44
2019-03-28T23:26:34.910Z,96043.47
2019-03-28T23:29:07.099Z,96053.15
2019-03-28T23:31:39.501Z,96053.39
2019-03-28T23:34:11.376Z,96052.27
2019-03-28T23:36:41.559Z,96052.27
2019-03-28T23:39:11.780Z,96053.22
2019-03-28T23:41:42.076Z,96053.22
2019-03-28T23:44:12.294Z,96048.55
2019-03-28T23:46:43.530Z,96048.55
2019-03-28T23:49:15.071Z,96051.19
2019-03-28T23:51:46.713Z,96057.29
2019-03-28T23:54:16.963Z,96057.29
2019-03-28T23:56:51.123Z,96059.52
2019-03-28T23:59:21.404Z,96054.58
